Time;durP1;ratioP1;P1;durP2;ratioP2;P2;SDS_P1;SDS_P2;PMS_P1;PMS_P2;Temp;Humidity;BMP_temperature;BMP_pressure;BME280_temperature;BME280_humidity;BME280_pressure;Samples;Min_cycle;Max_cycle;Signal;HPM_P1;HPM_P2
2022/09/13 00:02:16;;;;;;;;;5.33;5.00;;;;;19.69;59.02;98348.34;4944514;28;103555;-92
2022/09/13 00:04:43;;;;;;;;;5.00;5.00;;;;;19.69;58.63;98344.78;4947321;28;102703;-92
2022/09/13 00:07:10;;;;;;;;;6.00;4.00;;;;;19.70;58.83;98346.44;4947335;28;103734;-92
2022/09/13 00:09:37;;;;;;;;;4.33;4.00;;;;;19.69;58.75;98334.63;4946506;28;102497;-93
2022/09/13 00:12:04;;;;;;;;;4.67;4.00;;;;;19.70;58.64;98346.44;4945880;28;102823;-92
2022/09/13 00:14:31;;;;;;;;;5.33;4.33;;;;;19.67;58.97;98350.53;4950013;28;102861;-93
2022/09/13 00:16:58;;;;;;;;;4.00;4.00;;;;;19.69;58.51;98340.09;4940103;28;108753;-92
2022/09/13 00:19:25;;;;;;;;;3.33;3.33;;;;;19.68;58.59;98349.44;4945564;28;102725;-93
2022/09/13 00:21:52;;;;;;;;;3.67;3.67;;;;;19.67;58.70;98341.47;4941086;28;104670;-92
2022/09/13 00:24:19;;;;;;;;;7.00;5.00;;;;;19.65;58.45;98330.75;4943655;28;102385;-92
2022/09/13 00:26:46;;;;;;;;;4.67;4.67;;;;;19.65;58.51;98338.16;4955896;28;104043;-92
2022/09/13 00:29:13;;;;;;;;;5.00;5.00;;;;;19.65;58.83;98338.16;4943494;28;104917;-92
2022/09/13 00:31:40;;;;;;;;;4.67;4.00;;;;;19.64;58.70;98333.75;4941071;28;103602;-92
2022/09/13 00:34:07;;;;;;;;;5.67;5.33;;;;;19.64;58.34;98336.50;4942247;28;103316;-92
2022/09/13 00:36:34;;;;;;;;;6.00;5.67;;;;;19.64;58.92;98325.53;4942585;28;104756;-90
2022/09/13 00:39:01;;;;;;;;;6.67;5.00;;;;;19.63;58.46;98329.41;4945036;28;102545;-93
2022/09/13 00:41:28;;;;;;;;;5.00;4.67;;;;;19.61;59.08;98326.91;4945564;28;103119;-92
2022/09/13 00:43:57;;;;;;;;;4.67;4.67;;;;;19.62;58.55;98322.25;4931541;28;102683;-92
2022/09/13 00:46:32;;;;;;;;;6.67;6.00;;;;;19.62;58.76;98327.75;4945207;28;104201;-92
2022/09/13 00:49:21;;;;;;;;;4.33;4.33;;;;;19.62;59.07;98327.75;4944626;28;102379;-92
2022/09/13 00:51:54;;;;;;;;;4.33;4.33;;;;;19.60;58.82;98320.59;4934345;28;103349;-92
2022/09/13 00:54:21;;;;;;;;;4.00;4.00;;;;;19.62;58.84;98312.09;4946095;28;102439;-92
2022/09/13 00:56:51;;;;;;;;;5.00;5.00;;;;;19.61;58.58;98315.94;4960154;28;104993;-92
2022/09/13 00:59:24;;;;;;;;;6.67;5.00;;;;;19.62;58.74;98319.50;4949185;28;102393;-93
2022/09/13 01:01:53;;;;;;;;;5.00;3.00;;;;;19.60;58.66;98320.59;4932312;28;103175;-92
2022/09/13 01:04:21;;;;;;;;;5.00;5.00;;;;;19.59;58.56;98318.94;4939430;28;103465;-92
2022/09/13 01:06:48;;;;;;;;;5.67;5.67;;;;;19.58;58.39;98322.78;4922056;28;103908;-93
2022/09/13 01:09:15;;;;;;;;;6.00;5.33;;;;;19.58;58.82;98309.06;4933346;28;110371;-93
2022/09/13 01:12:07;;;;;;;;;6.00;6.00;;;;;19.58;58.80;98319.22;4937487;28;102366;-92
2022/09/13 01:14:49;;;;;;;;;5.00;5.00;;;;;19.57;58.69;98312.06;4938595;28;102345;-93
2022/09/13 01:17:38;;;;;;;;;6.33;5.33;;;;;19.57;58.96;98314.81;4919651;28;103839;-92
2022/09/13 01:20:24;;;;;;;;;4.33;4.33;;;;;19.55;58.89;98322.47;4949986;28;103598;-93
2022/09/13 01:23:32;;;;;;;;;5.00;5.00;;;;;19.55;58.73;98328.78;4939497;28;103287;-93
2022/09/13 01:26:48;;;;;;;;;5.00;5.00;;;;;19.53;58.64;98328.25;4937750;28;102814;-93
2022/09/13 01:29:54;;;;;;;;;4.00;4.00;;;;;19.55;59.07;98327.97;4937154;28;108790;-92
2022/09/13 01:32:36;;;;;;;;;5.33;5.33;;;;;19.54;59.01;98324.38;4940011;28;102774;-92
2022/09/13 01:35:32;;;;;;;;;4.67;4.67;;;;;19.55;58.69;98325.22;4939613;28;102897;-93
2022/09/13 01:38:18;;;;;;;;;5.67;5.00;;;;;19.55;58.49;98315.06;4934864;28;102684;-92
2022/09/13 01:41:19;;;;;;;;;5.00;5.00;;;;;19.54;58.80;98320.84;4938705;28;108688;-93
2022/09/13 01:44:10;;;;;;;;;4.00;4.00;;;;;19.52;58.52;98312.88;4942669;28;102589;-93
2022/09/13 01:46:53;;;;;;;;;5.67;5.67;;;;;19.53;58.78;98311.78;4940824;28;102453;-91
2022/09/13 01:49:32;;;;;;;;;5.00;5.00;;;;;19.50;58.67;98301.31;4948888;28;102749;-93
2022/09/13 01:52:28;;;;;;;;;6.00;5.33;;;;;19.50;58.77;98304.06;4945182;28;104279;-93
2022/09/13 01:55:15;;;;;;;;;5.00;5.00;;;;;19.49;58.75;98296.97;4932914;28;103305;-92
2022/09/13 01:57:51;;;;;;;;;5.00;4.00;;;;;19.50;59.02;98303.25;4946412;28;102719;-92
2022/09/13 02:00:18;;;;;;;;;5.67;5.00;;;;;19.49;58.93;98298.88;4941375;28;103137;-92
2022/09/13 02:02:54;;;;;;;;;5.00;5.00;;;;;19.48;58.91;98302.69;4929421;28;104192;-92
2022/09/13 02:05:36;;;;;;;;;6.67;5.00;;;;;19.49;58.79;98296.13;4929855;28;103165;-93
2022/09/13 02:08:06;;;;;;;;;5.33;4.67;;;;;19.48;58.96;98288.97;4931045;28;102410;-93
2022/09/13 02:10:42;;;;;;;;;5.67;5.00;;;;;19.48;58.99;98289.81;4957076;28;102714;-91
2022/09/13 02:13:14;;;;;;;;;5.00;5.00;;;;;19.48;58.62;98289.81;4924545;28;108841;-92
2022/09/13 02:15:45;;;;;;;;;4.00;4.00;;;;;19.48;58.42;98289.81;4958658;28;102367;-92
2022/09/13 02:18:18;;;;;;;;;5.00;5.00;;;;;19.48;58.76;98283.50;4954738;28;104215;-93
2022/09/13 02:20:47;;;;;;;;;5.00;4.00;;;;;19.47;58.94;98281.84;4943952;28;103178;-93
2022/09/13 02:23:27;;;;;;;;;5.00;4.00;;;;;19.47;58.65;98295.56;4954768;28;104547;-92
2022/09/13 02:25:54;;;;;;;;;5.00;5.00;;;;;19.45;58.46;98287.59;4929401;28;103845;-92
2022/09/13 02:28:26;;;;;;;;;5.67;5.00;;;;;19.46;58.62;98283.75;4922415;28;102628;-92
2022/09/13 02:30:53;;;;;;;;;6.00;5.33;;;;;19.44;58.83;98277.72;4930487;28;102570;-92
2022/09/13 02:33:42;;;;;;;;;6.00;6.00;;;;;19.43;58.73;98278.81;4929770;28;104113;-93
2022/09/13 02:36:19;;;;;;;;;5.00;5.00;;;;;19.44;58.82;98277.72;4940984;28;102665;-92
2022/09/13 02:38:50;;;;;;;;;5.00;5.00;;;;;19.43;58.76;98284.31;4934244;28;102753;-93
2022/09/13 02:41:37;;;;;;;;;6.00;5.00;;;;;19.42;58.93;98263.41;4943080;28;102538;-92
2022/09/13 02:44:12;;;;;;;;;4.67;4.67;;;;;19.42;58.88;98262.59;4927881;28;108795;-92
2022/09/13 02:46:51;;;;;;;;;7.00;6.33;;;;;19.41;58.79;98261.75;4947446;28;103854;-92
2022/09/13 02:49:30;;;;;;;;;4.00;4.00;;;;;19.41;58.93;98255.44;4943669;28;103312;-92
2022/09/13 02:52:06;;;;;;;;;5.67;5.67;;;;;19.42;58.66;98257.94;4944039;28;104747;-92
2022/09/13 02:54:39;;;;;;;;;5.00;5.00;;;;;19.42;58.64;98251.63;4943324;28;109024;-92
2022/09/13 02:57:13;;;;;;;;;6.00;5.00;;;;;19.42;58.65;98255.19;4924155;28;102518;-92
2022/09/13 02:59:40;;;;;;;;;5.00;5.00;;;;;19.42;58.64;98249.69;4937099;28;103403;-92
2022/09/13 03:02:27;;;;;;;;;5.00;5.00;;;;;19.41;58.60;98253.53;4935997;28;106302;-92
2022/09/13 03:04:55;;;;;;;;;5.00;5.00;;;;;19.40;58.57;98249.16;4933826;28;109098;-92
2022/09/13 03:07:22;;;;;;;;;6.00;6.00;;;;;19.40;58.47;98242.84;4938684;28;103344;-92
2022/09/13 03:09:52;;;;;;;;;5.00;5.00;;;;;19.39;58.63;98242.03;4938748;28;102609;-92
2022/09/13 03:12:37;;;;;;;;;5.00;4.67;;;;;19.37;58.77;98241.44;4939352;28;103185;-93
2022/09/13 03:15:19;;;;;;;;;5.67;5.00;;;;;19.38;58.87;98239.53;4939810;28;108907;-92
2022/09/13 03:18:09;;;;;;;;;6.33;5.33;;;;;19.37;58.75;98241.44;4937346;28;102415;-92
2022/09/13 03:20:57;;;;;;;;;5.00;5.00;;;;;19.37;58.73;98237.88;4954094;28;103337;-92
2022/09/13 03:23:54;;;;;;;;;5.00;5.00;;;;;19.36;58.77;98236.25;4923517;28;102583;-92
2022/09/13 03:26:27;;;;;;;;;6.00;6.00;;;;;19.34;59.02;98233.75;4936253;28;109227;-92
2022/09/13 03:29:16;;;;;;;;;5.00;5.00;;;;;19.35;58.67;98232.69;4937143;28;102551;-93
2022/09/13 03:32:05;;;;;;;;;6.00;5.33;;;;;19.36;58.73;98228.81;4933694;28;102169;-92
2022/09/13 03:35:22;;;;;;;;;3.33;3.00;;;;;19.37;58.69;98232.41;4943429;28;102722;-92
2022/09/13 03:38:07;;;;;;;;;5.00;5.00;;;;;19.35;58.68;98235.41;4905307;28;108888;-92
2022/09/13 03:40:51;;;;;;;;;5.00;4.33;;;;;19.35;58.20;98227.19;4938063;28;102249;-92
2022/09/13 03:43:35;;;;;;;;;5.00;4.33;;;;;19.35;58.70;98234.59;4931628;28;103668;-93
2022/09/13 03:46:29;;;;;;;;;5.33;4.33;;;;;19.34;58.59;98239.25;4935961;28;103422;-93
2022/09/13 03:49:05;;;;;;;;;6.00;5.67;;;;;19.34;58.69;98230.19;4924556;28;108951;-93
2022/09/13 03:51:32;;;;;;;;;5.67;5.00;;;;;19.33;59.09;98229.38;4929465;28;103906;-93
2022/09/13 03:54:01;;;;;;;;;5.00;5.00;;;;;19.33;58.79;98225.78;4928149;28;102379;-92
2022/09/13 03:56:28;;;;;;;;;5.00;5.00;;;;;19.33;58.59;98226.63;4946884;28;102611;-93
2022/09/13 03:58:55;;;;;;;;;6.33;5.33;;;;;19.32;58.85;98227.72;4936815;28;104036;-92
2022/09/13 04:01:23;;;;;;;;;7.00;7.00;;;;;19.31;58.75;98231.56;4941642;28;102671;-93
2022/09/13 04:03:50;;;;;;;;;4.67;4.00;;;;;19.32;58.63;98226.88;4934380;28;103175;-92
2022/09/13 04:06:22;;;;;;;;;5.67;4.67;;;;;19.30;58.68;98220.84;4942898;28;102457;-92
2022/09/13 04:08:49;;;;;;;;;5.67;5.33;;;;;19.30;58.71;98209.88;4933880;28;104042;-93
2022/09/13 04:11:16;;;;;;;;;4.67;4.33;;;;;19.30;58.69;98216.19;4938776;28;103025;-92
2022/09/13 04:13:43;;;;;;;;;5.33;5.00;;;;;19.30;58.68;98218.94;4948628;28;102448;-92
2022/09/13 04:16:10;;;;;;;;;5.00;4.67;;;;;19.30;58.49;98216.19;4929878;28;103490;-91
2022/09/13 04:18:37;;;;;;;;;5.00;5.00;;;;;19.30;58.41;98216.19;4936671;28;104438;-92
2022/09/13 04:21:05;;;;;;;;;5.00;4.33;;;;;19.31;58.39;98223.34;4940595;28;102345;-92
2022/09/13 04:23:32;;;;;;;;;7.33;7.00;;;;;19.30;58.26;98210.72;4932566;28;102721;-91
2022/09/13 04:26:02;;;;;;;;;5.00;5.00;;;;;19.29;58.08;98220.03;4944309;28;112202;-92
2022/09/13 04:28:29;;;;;;;;;5.00;4.00;;;;;19.30;58.39;98224.44;4934651;28;104045;-92
2022/09/13 04:30:56;;;;;;;;;7.00;6.00;;;;;19.30;58.10;98231.81;4932235;28;102482;-92
2022/09/13 04:33:23;;;;;;;;;6.00;5.33;;;;;19.29;58.47;98224.69;4946063;28;103104;-92
2022/09/13 04:35:57;;;;;;;;;5.67;5.67;;;;;19.29;58.29;98219.19;4958173;28;102582;-92
2022/09/13 04:38:24;;;;;;;;;7.33;6.67;;;;;19.28;58.50;98212.88;4943142;28;104951;-93
2022/09/13 04:40:53;;;;;;;;;4.33;4.33;;;;;19.27;58.38;98216.75;4945660;28;102618;-92
2022/09/13 04:43:20;;;;;;;;;7.33;5.67;;;;;19.28;58.56;98221.13;4947651;28;103371;-92
2022/09/13 04:45:47;;;;;;;;;6.33;6.00;;;;;19.26;58.54;98222.47;4948642;28;102639;-92
2022/09/13 04:48:15;;;;;;;;;7.67;6.00;;;;;19.27;58.47;98224.97;4945325;28;104250;-92
2022/09/13 04:50:42;;;;;;;;;6.00;5.00;;;;;19.26;58.45;98220.56;4947372;28;102769;-92
2022/09/13 04:53:09;;;;;;;;;6.00;5.00;;;;;19.26;58.54;98225.22;4933459;28;103454;-93
2022/09/13 04:55:36;;;;;;;;;5.00;5.00;;;;;19.28;58.32;98223.84;4942209;28;102580;-92
2022/09/13 04:58:03;;;;;;;;;5.00;5.00;;;;;19.26;58.30;98220.56;4936269;28;104424;-92
2022/09/13 05:00:31;;;;;;;;;4.00;4.00;;;;;19.28;58.38;98243.03;4944085;28;103087;-93
2022/09/13 05:02:58;;;;;;;;;6.00;6.00;;;;;19.27;58.25;98227.72;4946479;28;103659;-92
2022/09/13 05:05:25;;;;;;;;;5.00;5.00;;;;;19.26;58.31;98220.56;4942586;28;111173;-92
2022/09/13 05:07:52;;;;;;;;;5.00;5.00;;;;;19.27;58.26;98230.44;4943316;28;104217;-92
2022/09/13 05:10:19;;;;;;;;;6.67;5.67;;;;;19.27;58.26;98224.13;4937375;28;102549;-93
2022/09/13 05:12:46;;;;;;;;;6.00;5.00;;;;;19.26;58.31;98219.75;4943036;28;102368;-92
2022/09/13 05:15:13;;;;;;;;;6.00;5.00;;;;;19.25;58.22;98223.56;4944210;28;103197;-92
2022/09/13 05:17:40;;;;;;;;;7.67;5.67;;;;;19.25;58.38;98224.41;4931581;28;105782;-92
2022/09/13 05:20:08;;;;;;;;;5.00;5.00;;;;;19.25;58.52;98218.09;4940093;28;105245;-93
2022/09/13 05:22:35;;;;;;;;;5.67;5.67;;;;;19.25;58.51;98220.81;4942012;28;103422;-92
2022/09/13 05:25:02;;;;;;;;;6.00;5.33;;;;;19.23;58.68;98232.03;4945190;28;103552;-92
2022/09/13 05:27:29;;;;;;;;;4.67;4.33;;;;;19.24;58.51;98222.75;4947307;28;104071;-93
2022/09/13 05:29:56;;;;;;;;;5.67;5.00;;;;;19.25;58.56;98234.53;4946017;28;106973;-92
2022/09/13 05:32:23;;;;;;;;;5.00;5.00;;;;;19.24;58.34;98228.22;4938972;28;103679;-92
2022/09/13 05:34:50;;;;;;;;;5.00;4.00;;;;;19.24;58.29;98227.38;4947184;28;103572;-92
2022/09/13 05:37:17;;;;;;;;;6.33;5.67;;;;;19.26;58.41;98227.97;4945108;28;104073;-90
2022/09/13 05:39:44;;;;;;;;;5.67;5.00;;;;;19.25;58.48;98229.06;4948416;28;102515;-92
2022/09/13 05:42:31;;;;;;;;;5.00;5.00;;;;;19.26;58.39;98226.06;4940427;28;104166;-92
2022/09/13 05:44:58;;;;;;;;;6.33;6.33;;;;;19.24;58.10;98227.38;4946402;28;102547;-92
2022/09/13 05:47:25;;;;;;;;;5.00;5.00;;;;;19.24;58.33;98221.91;4941491;28;104103;-92
2022/09/13 05:49:52;;;;;;;;;6.00;6.00;;;;;19.24;58.27;98225.47;4946644;28;103227;-93
2022/09/13 05:52:36;;;;;;;;;7.00;6.00;;;;;19.23;58.29;98226.56;4943799;28;103533;-93
2022/09/13 05:55:03;;;;;;;;;5.00;5.00;;;;;19.24;58.46;98227.38;4943566;28;102639;-92
2022/09/13 05:57:30;;;;;;;;;5.33;4.67;;;;;19.23;58.32;98237.53;4939655;28;104444;-92
2022/09/13 05:59:57;;;;;;;;;6.00;5.67;;;;;19.23;58.31;98225.75;4944333;28;102568;-92
2022/09/13 06:02:24;;;;;;;;;5.33;4.33;;;;;19.23;58.36;98232.03;4941561;28;102282;-92
2022/09/13 06:04:51;;;;;;;;;5.67;5.00;;;;;19.22;58.40;98224.94;4942906;28;102257;-92
2022/09/13 06:07:18;;;;;;;;;4.00;4.00;;;;;19.22;58.36;98222.19;4944377;28;104310;-92
2022/09/13 06:09:46;;;;;;;;;5.00;4.33;;;;;19.23;58.31;98223.81;4939998;28;102164;-92
2022/09/13 06:12:13;;;;;;;;;5.00;5.00;;;;;19.23;58.39;98226.56;4944312;28;103238;-93
2022/09/13 06:14:40;;;;;;;;;7.00;6.33;;;;;19.24;58.24;98227.38;4944722;28;103370;-92
2022/09/13 06:17:07;;;;;;;;;5.33;5.00;;;;;19.25;57.84;98237.28;4943223;28;104221;-92
2022/09/13 06:19:34;;;;;;;;;4.67;4.67;;;;;19.24;58.27;98225.47;4943960;28;102408;-92
2022/09/13 06:22:01;;;;;;;;;5.00;5.00;;;;;19.26;58.22;98230.72;4944818;28;103595;-92
2022/09/13 06:24:28;;;;;;;;;4.67;4.00;;;;;19.26;58.01;98225.22;4944657;28;103554;-92
2022/09/13 06:26:55;;;;;;;;;6.00;4.00;;;;;19.25;58.05;98227.13;4941555;28;104328;-92
2022/09/13 06:29:21;;;;;;;;;7.33;6.67;;;;;19.25;57.91;98229.88;4942121;28;102313;-92
2022/09/13 06:31:49;;;;;;;;;6.33;6.33;;;;;19.25;58.15;98234.53;4940195;28;102110;-91
2022/09/13 06:34:16;;;;;;;;;4.00;4.00;;;;;19.26;58.10;98237.00;4941487;28;102424;-92
2022/09/13 06:36:43;;;;;;;;;5.67;5.00;;;;;19.25;58.41;98234.53;4942726;28;109248;-92
2022/09/13 06:39:10;;;;;;;;;6.67;5.67;;;;;19.25;58.10;98237.28;4940353;28;103630;-93
2022/09/13 06:41:37;;;;;;;;;8.00;6.33;;;;;19.24;58.36;98228.22;4940151;28;103564;-92
2022/09/13 06:44:04;;;;;;;;;6.00;5.00;;;;;19.25;58.31;98253.72;4942341;28;103372;-92
2022/09/13 06:46:32;;;;;;;;;7.33;5.67;;;;;19.24;58.39;98239.19;4940865;28;104044;-92
2022/09/13 06:49:02;;;;;;;;;4.33;4.00;;;;;19.25;58.20;98240.84;4938719;28;102451;-92
2022/09/13 06:51:29;;;;;;;;;5.33;4.67;;;;;19.25;58.20;98240.84;4940795;28;102477;-92
2022/09/13 06:53:57;;;;;;;;;5.00;5.00;;;;;19.25;58.15;98235.34;4935651;28;105078;-92
2022/09/13 06:56:27;;;;;;;;;5.33;5.33;;;;;19.25;58.04;98227.13;4934988;28;104068;-92
2022/09/13 06:58:56;;;;;;;;;6.67;5.33;;;;;19.27;58.08;98233.19;4944513;28;102392;-92
2022/09/13 07:01:27;;;;;;;;;5.00;5.00;;;;;19.27;58.20;98237.84;4942502;28;103231;-92
2022/09/13 07:04:00;;;;;;;;;6.33;6.33;;;;;19.29;58.00;98225.50;4948795;28;102288;-92
2022/09/13 07:06:29;;;;;;;;;5.00;4.00;;;;;19.29;57.81;98213.72;4942785;28;104035;-92
2022/09/13 07:08:56;;;;;;;;;5.33;5.33;;;;;19.30;57.50;98209.88;4943293;28;102508;-92
2022/09/13 07:11:25;;;;;;;;;6.00;5.00;;;;;19.30;57.90;98218.94;4947082;28;102390;-93
2022/09/13 07:13:53;;;;;;;;;7.00;6.33;;;;;19.29;57.93;98217.28;4944528;28;102261;-92
2022/09/13 07:16:22;;;;;;;;;5.67;5.67;;;;;19.29;57.99;98220.03;4942096;28;104287;-92
2022/09/13 07:18:53;;;;;;;;;5.00;4.00;;;;;19.29;57.99;98214.53;4942303;28;103635;-92
2022/09/13 07:21:21;;;;;;;;;5.00;5.00;;;;;19.30;57.89;98210.72;4943307;28;103680;-92
2022/09/13 07:23:48;;;;;;;;;4.33;4.33;;;;;19.30;57.96;98210.72;4943361;28;102642;-90
2022/09/13 07:26:15;;;;;;;;;6.67;6.00;;;;;19.29;57.97;98209.06;4944793;28;104055;-92
2022/09/13 07:28:46;;;;;;;;;6.67;5.67;;;;;19.30;58.13;98205.22;4958375;28;104059;-92
2022/09/13 07:31:14;;;;;;;;;4.67;4.67;;;;;19.30;58.07;98205.22;4946541;28;103236;-92
2022/09/13 07:33:41;;;;;;;;;3.33;3.00;;;;;19.32;57.88;98199.47;4945611;28;103424;-92
2022/09/13 07:36:10;;;;;;;;;5.00;4.00;;;;;19.33;57.77;98207.44;4942319;28;104338;-92
2022/09/13 07:38:39;;;;;;;;;3.00;3.00;;;;;19.34;57.94;98208.25;4946252;28;102848;-92
2022/09/13 07:41:07;;;;;;;;;5.33;4.00;;;;;19.36;57.83;98206.09;4946242;28;102514;-92
2022/09/13 07:43:35;;;;;;;;;5.00;5.00;;;;;19.35;57.86;98208.00;4945286;28;102450;-92
2022/09/13 07:46:04;;;;;;;;;4.00;4.00;;;;;19.37;57.70;98211.28;4947104;28;104080;-92
2022/09/13 07:48:32;;;;;;;;;5.67;5.67;;;;;19.38;57.78;98207.47;4943821;28;102396;-92
2022/09/13 07:51:13;;;;;;;;;5.00;4.67;;;;;19.40;57.63;98198.97;4943659;28;102618;-92
2022/09/13 07:53:42;;;;;;;;;5.00;5.00;;;;;19.40;57.56;98198.97;4945916;28;102638;-92
2022/09/13 07:56:11;;;;;;;;;5.00;4.00;;;;;19.41;57.79;98206.09;4939280;28;104118;-92
2022/09/13 07:58:39;;;;;;;;;4.00;3.00;;;;;19.40;57.65;98197.06;4943660;28;104536;-92
2022/09/13 08:01:11;;;;;;;;;5.00;5.00;;;;;19.40;57.84;98197.06;4942896;28;103167;-92
2022/09/13 08:03:38;;;;;;;;;4.67;4.33;;;;;19.43;57.72;98199.28;4941632;28;104163;-92
2022/09/13 08:06:06;;;;;;;;;4.00;4.00;;;;;19.43;57.69;98193.81;4944837;28;104042;-92
2022/09/13 08:08:33;;;;;;;;;4.00;4.00;;;;;19.45;57.62;98199.84;4947335;28;102747;-92
2022/09/13 08:11:01;;;;;;;;;5.00;4.00;;;;;19.47;57.55;98191.34;4944593;28;102340;-93
2022/09/13 08:13:29;;;;;;;;;4.00;4.00;;;;;19.46;57.46;98195.19;4945484;28;104251;-93
2022/09/13 08:15:56;;;;;;;;;5.00;4.00;;;;;19.46;57.63;98193.25;4936757;28;104221;-92
2022/09/13 08:18:23;;;;;;;;;4.00;4.00;;;;;19.45;57.79;98202.56;4943281;28;103515;-92
2022/09/13 08:20:50;;;;;;;;;4.67;4.67;;;;;19.41;57.77;98186.88;4951324;28;103978;-93
2022/09/13 08:23:17;;;;;;;;;5.00;4.33;;;;;19.45;57.63;98186.13;4949693;28;103393;-92
2022/09/13 08:25:44;;;;;;;;;5.33;5.00;;;;;19.46;57.56;98189.69;4941530;28;104040;-91
2022/09/13 08:28:15;;;;;;;;;4.33;4.00;;;;;19.46;57.53;98185.03;4943386;28;106265;-92
2022/09/13 08:30:42;;;;;;;;;4.00;4.00;;;;;19.47;57.53;98180.38;4945789;28;103753;-92
2022/09/13 08:33:10;;;;;;;;;3.00;3.00;;;;;19.47;57.70;98185.88;4945382;28;102730;-92
2022/09/13 08:35:37;;;;;;;;;4.00;4.00;;;;;19.48;57.55;98191.09;4934658;28;104053;-92
2022/09/13 08:38:04;;;;;;;;;4.00;4.00;;;;;19.48;57.45;98182.03;4946370;28;103441;-92
2022/09/13 08:40:40;;;;;;;;;5.00;5.00;;;;;19.47;57.51;98178.47;4949709;28;102071;-91
2022/09/13 08:43:22;;;;;;;;;5.00;4.67;;;;;19.48;57.73;98179.28;4950306;28;102482;-92
2022/09/13 08:45:56;;;;;;;;;5.00;4.00;;;;;19.48;57.60;98184.78;4954937;28;109872;-92
2022/09/13 08:48:27;;;;;;;;;3.00;3.00;;;;;19.48;57.61;98177.38;4939820;28;102596;-92
2022/09/13 08:50:55;;;;;;;;;3.67;3.00;;;;;19.49;57.54;98172.72;4927444;28;102605;-92
2022/09/13 08:53:23;;;;;;;;;4.00;4.00;;;;;19.49;57.65;98170.81;4931254;28;102427;-89
2022/09/13 08:56:09;;;;;;;;;4.00;4.00;;;;;19.51;57.87;98167.78;4959396;28;104043;-92
2022/09/13 08:58:57;;;;;;;;;3.67;3.67;;;;;19.50;57.50;98164.22;4945802;28;103453;-92
2022/09/13 09:01:43;;;;;;;;;4.00;4.00;;;;;19.51;57.60;98154.91;4944771;28;102372;-92
2022/09/13 09:04:26;;;;;;;;;4.00;4.00;;;;;19.52;57.64;98164.78;4945808;28;103224;-92
2022/09/13 09:07:10;;;;;;;;;3.33;3.33;;;;;19.52;57.46;98156.56;4942993;28;109059;-91
2022/09/13 09:09:46;;;;;;;;;6.00;4.33;;;;;19.53;57.44;98157.38;4949651;28;103634;-92
2022/09/13 09:12:20;;;;;;;;;5.00;4.00;;;;;19.53;57.55;98160.94;4909940;28;102119;-92
2022/09/13 09:15:24;;;;;;;;;5.67;5.00;;;;;19.54;57.35;98148.84;4952250;28;103426;-92
2022/09/13 09:18:14;;;;;;;;;4.67;3.33;;;;;19.55;57.50;98153.25;4934711;28;109096;-89
2022/09/13 09:20:48;;;;;;;;;4.67;3.67;;;;;19.55;57.54;98142.28;4948089;28;103715;-92
2022/09/13 09:23:17;;;;;;;;;4.00;4.00;;;;;19.54;57.26;98146.13;4946837;28;103394;-92
2022/09/13 09:25:47;;;;;;;;;3.00;2.67;;;;;19.55;57.25;98147.78;4945570;28;102313;-92
2022/09/13 09:28:16;;;;;;;;;3.00;3.00;;;;;19.56;57.29;98151.34;4942709;28;104096;-91
2022/09/13 09:31:02;;;;;;;;;4.00;4.00;;;;;19.56;57.64;98154.91;4944045;28;103666;-92
2022/09/13 09:33:44;;;;;;;;;3.00;3.00;;;;;19.57;57.39;98150.25;4954721;28;102456;-92
2022/09/13 09:36:20;;;;;;;;;4.00;4.00;;;;;19.57;57.63;98140.13;4946072;28;102658;-92
2022/09/13 09:38:48;;;;;;;;;3.00;3.00;;;;;19.58;57.69;98144.50;4945716;28;108928;-93
2022/09/13 09:41:21;;;;;;;;;3.67;3.33;;;;;19.57;57.40;98134.63;4946429;28;102257;-92
2022/09/13 09:44:12;;;;;;;;;3.67;3.33;;;;;19.59;57.49;98140.66;4947831;28;103237;-93
2022/09/13 09:46:40;;;;;;;;;3.00;3.00;;;;;19.60;57.33;98134.06;4946439;28;102592;-92
2022/09/13 09:52:50;;;;;;;;;4.00;4.00;;;;;19.62;57.50;98138.47;4942665;28;102434;-92
2022/09/13 09:55:39;;;;;;;;;3.67;2.67;;;;;19.62;57.63;98136.56;4946960;28;105195;-92
2022/09/13 09:58:07;;;;;;;;;3.33;3.00;;;;;19.62;57.49;98124.75;4955172;28;103386;-92
2022/09/13 10:00:36;;;;;;;;;3.67;3.67;;;;;19.62;57.79;98124.75;4943056;28;104056;-92
2022/09/13 10:03:17;;;;;;;;;3.67;3.67;;;;;19.60;57.64;98117.63;4939833;28;102628;-92
2022/09/13 10:05:45;;;;;;;;;3.67;3.67;;;;;19.60;57.57;98112.13;4954473;28;103412;-92
2022/09/13 10:08:35;;;;;;;;;3.67;3.67;;;;;19.63;57.45;98102.56;4945834;28;103261;-93
2022/09/13 10:11:02;;;;;;;;;4.33;4.33;;;;;19.63;57.26;98097.06;4945525;28;109006;-92
2022/09/13 10:13:30;;;;;;;;;3.67;3.00;;;;;19.65;57.20;98102.25;4944085;28;102401;-93
2022/09/13 10:16:29;;;;;;;;;4.00;4.00;;;;;19.65;57.47;98099.53;4947106;28;104230;-92
2022/09/13 10:19:23;;;;;;;;;3.00;3.00;;;;;19.66;57.57;98092.94;4943200;28;102606;-92
2022/09/13 10:22:01;;;;;;;;;5.00;4.00;;;;;19.66;57.59;98092.94;4941614;28;109283;-92
2022/09/13 10:24:29;;;;;;;;;3.33;3.33;;;;;19.67;57.30;98105.56;4946122;28;103450;-92
2022/09/13 10:26:56;;;;;;;;;3.00;3.00;;;;;19.68;57.46;98096.25;4942223;28;103359;-92
2022/09/13 10:29:25;;;;;;;;;4.00;3.33;;;;;19.69;57.66;98089.66;4946906;28;102642;-91
2022/09/13 10:31:57;;;;;;;;;4.00;4.00;;;;;19.69;57.47;98095.13;4949116;28;104040;-93
2022/09/13 10:34:29;;;;;;;;;2.67;2.67;;;;;19.68;57.38;98097.06;4943573;28;103241;-92
2022/09/13 10:36:59;;;;;;;;;5.00;4.00;;;;;19.69;57.52;98095.97;4940727;28;103132;-92
2022/09/13 10:39:27;;;;;;;;;4.00;4.00;;;;;19.69;57.12;98093.22;4941318;28;102446;-92
2022/09/13 10:42:06;;;;;;;;;3.67;3.00;;;;;19.71;57.57;98096.53;4938151;28;104050;-91
2022/09/13 10:44:44;;;;;;;;;3.67;3.00;;;;;19.71;57.44;98085.56;4958551;28;102714;-92
2022/09/13 10:47:30;;;;;;;;;3.00;3.00;;;;;19.72;57.16;98091.88;4928362;28;103454;-91
2022/09/13 10:49:58;;;;;;;;;3.00;3.00;;;;;19.72;57.26;98087.22;4926123;28;102449;-92
2022/09/13 10:52:27;;;;;;;;;3.00;3.00;;;;;19.73;57.25;98090.75;4936645;28;104129;-91
2022/09/13 10:54:54;;;;;;;;;3.00;3.00;;;;;19.73;57.18;98082.53;4937362;28;102550;-92
2022/09/13 10:57:32;;;;;;;;;3.67;3.33;;;;;19.74;57.16;98078.69;4940488;28;102364;-92
2022/09/13 10:59:59;;;;;;;;;3.33;3.33;;;;;19.75;57.24;98074.84;4940936;28;102613;-92
2022/09/13 11:02:36;;;;;;;;;4.00;3.67;;;;;19.76;57.14;98073.75;4941425;28;104249;-92
2022/09/13 11:05:08;;;;;;;;;3.00;3.00;;;;;19.77;57.58;98067.19;4944534;28;105009;-92
2022/09/13 11:07:46;;;;;;;;;1.00;0.00;;;;;19.76;57.46;98066.38;4941835;28;102576;-92
2022/09/13 11:10:25;;;;;;;;;4.00;4.00;;;;;19.77;57.14;98056.22;4946425;28;102705;-92
2022/09/13 11:13:05;;;;;;;;;3.00;3.00;;;;;19.78;57.38;98061.41;4943295;28;108970;-91
2022/09/13 11:15:53;;;;;;;;;3.00;3.00;;;;;19.79;57.36;98065.81;4942120;28;102557;-92
2022/09/13 11:18:39;;;;;;;;;3.67;3.67;;;;;19.81;57.36;98062.81;4946764;28;102676;-91
2022/09/13 11:21:32;;;;;;;;;3.33;3.33;;;;;19.81;57.18;98051.81;4947394;28;103741;-92
2022/09/13 11:24:32;;;;;;;;;2.00;2.00;;;;;19.81;57.07;98047.13;4942487;28;109755;-92
2022/09/13 11:27:19;;;;;;;;;4.00;3.00;;;;;19.82;57.25;98042.47;4957049;28;102397;-91
2022/09/13 11:30:07;;;;;;;;;4.00;3.33;;;;;19.82;56.89;98035.06;4934588;28;102791;-92
2022/09/13 11:32:56;;;;;;;;;3.00;3.00;;;;;19.84;57.24;98035.63;4927517;28;105245;-92
2022/09/13 11:35:26;;;;;;;;;3.00;3.00;;;;;19.85;56.90;98041.94;4948082;28;108930;-92
2022/09/13 11:38:31;;;;;;;;;3.00;3.00;;;;;19.85;56.86;98031.78;4944955;28;102387;-92
2022/09/13 11:41:13;;;;;;;;;3.33;3.33;;;;;19.87;57.31;98024.09;4948671;28;103234;-92
2022/09/13 11:44:14;;;;;;;;;3.67;3.67;;;;;19.88;57.16;98016.69;4944994;28;102894;-91
2022/09/13 11:46:44;;;;;;;;;3.00;3.00;;;;;19.89;57.07;98002.72;4945102;28;108012;-91
2022/09/13 11:49:21;;;;;;;;;4.67;4.00;;;;;19.90;56.81;98000.78;4946838;28;103373;-93
2022/09/13 11:52:10;;;;;;;;;2.33;2.33;;;;;19.91;56.80;97981.28;4958325;28;102576;-92
2022/09/13 11:54:58;;;;;;;;;3.00;3.00;;;;;19.93;56.86;97989.25;4938001;28;103345;-92
2022/09/13 11:57:32;;;;;;;;;3.00;3.00;;;;;19.92;56.83;97976.63;4955644;28;109091;-92
2022/09/13 12:00:07;;;;;;;;;3.00;2.67;;;;;19.94;56.70;97972.53;4925292;28;103653;-91